Time;durP1;ratioP1;P1;durP2;ratioP2;P2;SDS_P1;SDS_P2;PMS_P1;PMS_P2;Temp;Humidity;BMP_temperature;BMP_pressure;BME280_temperature;BME280_humidity;BME280_pressure;Samples;Min_cycle;Max_cycle;Signal;HPM_P1;HPM_P2
2023/05/05 00:02:11;;;;;;;8.57;5.22;;;;;;;;;;6156196;23;20023;-81
2023/05/05 00:04:37;;;;;;;9.68;4.63;;;;;;;;;;6131880;23;20048;-81
2023/05/05 00:07:03;;;;;;;10.02;4.88;;;;;;;;;;6156378;23;20013;-81
2023/05/05 00:09:29;;;;;;;12.90;5.68;;;;;;;;;;6156696;23;20413;-81
2023/05/05 00:11:55;;;;;;;9.55;4.93;;;;;;;;;;6156310;23;20028;-81
2023/05/05 00:14:21;;;;;;;8.48;5.13;;;;;;;;;;6155612;23;20021;-81
2023/05/05 00:16:47;;;;;;;10.50;5.32;;;;;;;;;;6156237;23;20100;-81
2023/05/05 00:19:13;;;;;;;10.07;5.13;;;;;;;;;;6183047;23;20349;-81
2023/05/05 00:21:39;;;;;;;12.85;5.60;;;;;;;;;;6156201;23;20017;-81
2023/05/05 00:24:05;;;;;;;8.57;5.10;;;;;;;;;;6183134;23;20112;-81
2023/05/05 00:26:31;;;;;;;9.35;5.32;;;;;;;;;;6156631;23;20028;-81
2023/05/05 00:28:57;;;;;;;10.45;5.15;;;;;;;;;;6155684;23;20009;-81
2023/05/05 00:31:23;;;;;;;8.63;5.10;;;;;;;;;;6183049;23;20085;-81
2023/05/05 00:33:49;;;;;;;11.77;5.72;;;;;;;;;;6156006;23;20099;-81
2023/05/05 00:36:15;;;;;;;12.75;5.30;;;;;;;;;;6182531;23;20013;-81
2023/05/05 00:38:41;;;;;;;12.20;5.32;;;;;;;;;;6156019;23;20020;-81
2023/05/05 00:41:07;;;;;;;9.27;5.38;;;;;;;;;;6155983;23;20013;-81
2023/05/05 00:43:33;;;;;;;12.13;5.80;;;;;;;;;;6155457;23;20013;-81
2023/05/05 00:46:01;;;;;;;10.43;5.60;;;;;;;;;;6131599;23;20015;-81
2023/05/05 00:48:31;;;;;;;8.57;5.38;;;;;;;;;;6182385;23;20084;-81
2023/05/05 00:50:57;;;;;;;10.75;5.20;;;;;;;;;;6156014;23;20183;-81
2023/05/05 00:53:24;;;;;;;10.05;5.20;;;;;;;;;;6182211;23;20025;-81
2023/05/05 00:55:50;;;;;;;12.55;5.72;;;;;;;;;;6155873;23;20456;-81
2023/05/05 00:58:17;;;;;;;12.73;5.40;;;;;;;;;;6182057;23;20013;-81
2023/05/05 01:00:43;;;;;;;10.73;5.30;;;;;;;;;;6155748;23;20050;-81
2023/05/05 01:03:11;;;;;;;10.63;5.70;;;;;;;;;;6182584;23;20327;-81
2023/05/05 01:05:44;;;;;;;9.93;5.22;;;;;;;;;;6182654;23;20025;-81
2023/05/05 01:08:26;;;;;;;7.77;5.13;;;;;;;;;;6131491;23;20013;-81
2023/05/05 01:10:54;;;;;;;10.43;5.72;;;;;;;;;;6182139;23;20127;-81
2023/05/05 01:13:30;;;;;;;10.32;5.18;;;;;;;;;;6182101;23;20088;-81
2023/05/05 01:16:01;;;;;;;10.52;5.45;;;;;;;;;;6182660;23;20139;-81
2023/05/05 01:18:49;;;;;;;10.15;5.45;;;;;;;;;;6182489;23;20020;-80
2023/05/05 01:21:33;;;;;;;8.30;5.10;;;;;;;;;;6131035;23;20025;-81
2023/05/05 01:24:08;;;;;;;10.05;5.28;;;;;;;;;;6182439;23;20055;-81
2023/05/05 01:26:34;;;;;;;10.50;5.75;;;;;;;;;;6155144;23;20020;-81
2023/05/05 01:29:24;;;;;;;12.52;5.10;;;;;;;;;;6157245;23;20036;-81
2023/05/05 01:31:52;;;;;;;11.27;4.80;;;;;;;;;;6149797;23;20109;-81
2023/05/05 01:34:32;;;;;;;9.90;5.25;;;;;;;;;;6158080;23;20013;-81
2023/05/05 01:37:00;;;;;;;9.50;4.70;;;;;;;;;;6184447;23;20013;-81
2023/05/05 01:39:27;;;;;;;11.10;5.15;;;;;;;;;;6157703;23;20013;-81
2023/05/05 01:41:57;;;;;;;12.43;5.35;;;;;;;;;;6157017;23;20020;-81
2023/05/05 01:44:24;;;;;;;12.02;4.75;;;;;;;;;;6157835;23;20045;-81
2023/05/05 01:46:51;;;;;;;11.23;5.60;;;;;;;;;;6157568;23;20017;-81
2023/05/05 01:49:17;;;;;;;8.25;4.78;;;;;;;;;;6183904;23;20466;-81
2023/05/05 01:51:45;;;;;;;9.07;4.97;;;;;;;;;;6184263;23;20017;-81
2023/05/05 01:54:12;;;;;;;8.63;4.40;;;;;;;;;;6156829;23;20063;-81
2023/05/05 01:56:39;;;;;;;9.88;4.88;;;;;;;;;;6132799;23;20048;-81
2023/05/05 01:59:05;;;;;;;10.30;5.07;;;;;;;;;;6132783;23;20103;-81
2023/05/05 02:01:33;;;;;;;8.50;4.90;;;;;;;;;;6183922;23;20013;-81
2023/05/05 02:04:00;;;;;;;9.57;4.55;;;;;;;;;;6157318;23;20362;-81
2023/05/05 02:06:31;;;;;;;12.00;5.47;;;;;;;;;;6157056;23;20125;-81
2023/05/05 02:08:57;;;;;;;11.25;5.68;;;;;;;;;;6183554;23;20024;-81
2023/05/05 02:11:23;;;;;;;13.95;5.53;;;;;;;;;;6157174;23;20016;-81
2023/05/05 02:13:50;;;;;;;12.07;5.57;;;;;;;;;;6127463;23;20377;-81
2023/05/05 02:16:17;;;;;;;9.80;4.80;;;;;;;;;;6128209;23;20013;-81
2023/05/05 02:18:45;;;;;;;10.60;5.47;;;;;;;;;;6154091;23;20074;-81
2023/05/05 02:21:13;;;;;;;10.73;5.10;;;;;;;;;;6152039;23;20349;-81
2023/05/05 02:23:39;;;;;;;11.10;5.32;;;;;;;;;;6151624;23;20068;-81
2023/05/05 02:26:10;;;;;;;10.45;5.25;;;;;;;;;;6154099;23;20096;-81
2023/05/05 02:28:36;;;;;;;12.48;5.47;;;;;;;;;;6153627;23;20017;-81
2023/05/05 02:31:03;;;;;;;12.10;5.38;;;;;;;;;;6152243;23;20013;-81
2023/05/05 02:33:32;;;;;;;11.60;5.30;;;;;;;;;;6154197;23;20115;-81
2023/05/05 02:36:03;;;;;;;9.13;4.93;;;;;;;;;;6151863;23;20024;-81
2023/05/05 02:38:30;;;;;;;10.00;5.13;;;;;;;;;;6153694;23;20009;-81
2023/05/05 02:40:57;;;;;;;11.80;5.32;;;;;;;;;;6153935;23;20014;-81
2023/05/05 02:43:24;;;;;;;10.10;4.68;;;;;;;;;;6154068;23;20014;-81
2023/05/05 02:45:50;;;;;;;11.82;5.20;;;;;;;;;;6152256;23;20101;-81
2023/05/05 02:48:16;;;;;;;9.23;5.20;;;;;;;;;;6152140;23;20040;-81
2023/05/05 02:50:42;;;;;;;8.20;5.10;;;;;;;;;;6151876;23;20037;-81
2023/05/05 02:53:08;;;;;;;14.05;4.95;;;;;;;;;;6151587;23;20017;-81
2023/05/05 02:55:41;;;;;;;9.15;4.82;;;;;;;;;;6153907;23;20021;-81
2023/05/05 02:58:07;;;;;;;;;;;;;;;;;;6152450;23;20013;-81
2023/05/05 03:00:43;;;;;;;12.90;6.00;;;;;;;;;;6152427;23;19919;-81
2023/05/05 03:03:23;;;;;;;13.88;5.20;;;;;;;;;;6153572;23;20013;-81
2023/05/05 03:05:53;;;;;;;10.85;5.63;;;;;;;;;;6151866;23;20016;-81
2023/05/05 03:08:27;;;;;;;12.90;5.55;;;;;;;;;;6126686;23;20018;-81
2023/05/05 03:10:59;;;;;;;11.52;5.95;;;;;;;;;;6153874;23;20068;-82
2023/05/05 03:13:26;;;;;;;12.27;5.88;;;;;;;;;;6151683;23;20445;-81
2023/05/05 03:15:52;;;;;;;10.00;5.50;;;;;;;;;;6153643;23;20120;-81
2023/05/05 03:18:20;;;;;;;11.23;5.70;;;;;;;;;;6151647;23;20236;-81
2023/05/05 03:20:46;;;;;;;9.90;5.13;;;;;;;;;;6153281;23;20047;-81
2023/05/05 03:23:12;;;;;;;9.18;5.53;;;;;;;;;;6126394;23;20017;-81
2023/05/05 03:25:56;;;;;;;10.10;5.80;;;;;;;;;;6151794;23;20021;-81
2023/05/05 03:28:22;;;;;;;12.77;6.22;;;;;;;;;;6151624;23;20060;-82
2023/05/05 03:30:48;;;;;;;13.15;6.00;;;;;;;;;;6153569;23;20437;-81
2023/05/05 03:33:15;;;;;;;10.57;5.68;;;;;;;;;;6152007;23;20045;-81
2023/05/05 03:35:41;;;;;;;10.32;5.63;;;;;;;;;;6153144;23;20025;-81
2023/05/05 03:38:07;;;;;;;11.73;5.43;;;;;;;;;;6153712;23;20152;-81
2023/05/05 03:40:33;;;;;;;8.43;5.47;;;;;;;;;;6153677;23;20049;-81
2023/05/05 03:42:59;;;;;;;13.13;5.80;;;;;;;;;;6151627;23;20527;-81
2023/05/05 03:45:25;;;;;;;12.07;5.57;;;;;;;;;;6151811;23;20088;-81
2023/05/05 03:47:51;;;;;;;9.60;6.05;;;;;;;;;;6151747;23;20024;-81
2023/05/05 03:50:17;;;;;;;11.60;6.68;;;;;;;;;;6151182;23;20010;-81
2023/05/05 03:52:43;;;;;;;9.15;5.70;;;;;;;;;;6152178;23;20013;-81
2023/05/05 03:55:09;;;;;;;7.88;5.38;;;;;;;;;;6151557;23;20055;-81
2023/05/05 03:57:35;;;;;;;9.90;6.18;;;;;;;;;;6127087;23;20092;-82
2023/05/05 04:00:01;;;;;;;9.85;6.20;;;;;;;;;;6127264;23;20017;-81
2023/05/05 04:02:27;;;;;;;11.13;5.80;;;;;;;;;;6153514;23;20036;-82
2023/05/05 04:04:53;;;;;;;9.90;5.82;;;;;;;;;;6152481;23;20329;-81
2023/05/05 04:07:21;;;;;;;9.25;5.60;;;;;;;;;;6153435;23;20092;-81
2023/05/05 04:09:47;;;;;;;10.70;6.28;;;;;;;;;;6153439;23;20121;-81
2023/05/05 04:12:13;;;;;;;10.18;5.88;;;;;;;;;;6153505;23;20444;-81
2023/05/05 04:14:39;;;;;;;12.68;6.05;;;;;;;;;;6126778;23;20071;-81
2023/05/05 04:17:05;;;;;;;12.35;5.55;;;;;;;;;;6151626;23;20044;-81
2023/05/05 04:19:32;;;;;;;13.32;6.20;;;;;;;;;;6150859;23;20397;-81
2023/05/05 04:21:58;;;;;;;9.45;6.03;;;;;;;;;;6151530;23;20013;-82
2023/05/05 04:24:24;;;;;;;10.60;6.22;;;;;;;;;;6151436;23;20021;-82
2023/05/05 04:26:51;;;;;;;11.50;6.55;;;;;;;;;;6147627;23;20049;-81
2023/05/05 04:29:17;;;;;;;10.25;6.30;;;;;;;;;;6149237;23;20109;-82
2023/05/05 04:31:43;;;;;;;10.57;6.88;;;;;;;;;;6125976;23;20017;-82
2023/05/05 04:34:09;;;;;;;11.43;7.10;;;;;;;;;;6150604;23;20068;-81
2023/05/05 04:36:35;;;;;;;12.15;7.50;;;;;;;;;;6151691;23;20017;-81
2023/05/05 04:39:01;;;;;;;12.05;8.00;;;;;;;;;;6126597;23;20013;-81
2023/05/05 04:41:28;;;;;;;20.58;10.55;;;;;;;;;;6151456;23;20089;-81
2023/05/05 04:43:54;;;;;;;21.80;11.18;;;;;;;;;;6151264;23;20068;-82
2023/05/05 04:46:20;;;;;;;16.20;9.77;;;;;;;;;;6153280;23;20020;-82
2023/05/05 04:48:46;;;;;;;19.92;10.55;;;;;;;;;;6125940;23;20032;-81
2023/05/05 04:51:13;;;;;;;14.57;9.75;;;;;;;;;;6151218;23;20322;-80
2023/05/05 04:53:39;;;;;;;16.40;10.13;;;;;;;;;;6153120;23;20337;-81
2023/05/05 04:56:05;;;;;;;15.38;9.95;;;;;;;;;;6151192;23;20021;-81
2023/05/05 04:58:31;;;;;;;15.18;10.85;;;;;;;;;;6151319;23;20526;-80
2023/05/05 05:00:57;;;;;;;16.08;9.27;;;;;;;;;;6150744;23;20013;-81
2023/05/05 05:03:23;;;;;;;14.57;9.63;;;;;;;;;;6150736;23;20111;-82
2023/05/05 05:05:49;;;;;;;12.95;9.73;;;;;;;;;;6153171;23;20017;-80
2023/05/05 05:08:16;;;;;;;19.85;10.10;;;;;;;;;;6126535;23;20053;-81
2023/05/05 05:10:42;;;;;;;32.35;12.55;;;;;;;;;;6150595;23;20017;-80
2023/05/05 05:13:08;;;;;;;22.63;14.30;;;;;;;;;;6151483;23;20076;-83
2023/05/05 05:15:37;;;;;;;23.52;14.77;;;;;;;;;;6127091;23;20036;-81
2023/05/05 05:18:04;;;;;;;19.30;13.00;;;;;;;;;;6150966;23;20025;-82
2023/05/05 05:20:30;;;;;;;18.83;13.48;;;;;;;;;;6151803;23;20403;-81
2023/05/05 05:22:56;;;;;;;18.25;14.20;;;;;;;;;;6151695;23;20009;-81
2023/05/05 05:25:23;;;;;;;19.08;13.52;;;;;;;;;;6150881;23;20017;-82
2023/05/05 05:27:49;;;;;;;18.35;13.65;;;;;;;;;;6151196;23;20014;-84
2023/05/05 05:30:15;;;;;;;17.48;12.02;;;;;;;;;;6149921;23;20032;-82
2023/05/05 05:32:41;;;;;;;18.52;12.63;;;;;;;;;;6148163;23;20093;-82
2023/05/05 05:35:07;;;;;;;18.67;12.95;;;;;;;;;;6124136;23;20052;-82
2023/05/05 05:37:34;;;;;;;19.65;13.05;;;;;;;;;;6149106;23;20018;-81
2023/05/05 05:40:00;;;;;;;17.10;12.90;;;;;;;;;;6148533;23;20024;-82
2023/05/05 05:42:26;;;;;;;14.82;11.90;;;;;;;;;;6150603;23;20013;-83
2023/05/05 05:44:52;;;;;;;19.98;13.25;;;;;;;;;;6149317;23;20056;-82
2023/05/05 05:47:18;;;;;;;17.85;12.57;;;;;;;;;;6150488;23;20262;-83
2023/05/05 05:49:44;;;;;;;25.70;15.02;;;;;;;;;;6126572;23;20009;-83
2023/05/05 05:52:10;;;;;;;20.05;13.77;;;;;;;;;;6151259;23;20051;-83
2023/05/05 05:54:36;;;;;;;16.75;12.13;;;;;;;;;;6126889;23;20425;-82
2023/05/05 05:57:03;;;;;;;19.77;13.10;;;;;;;;;;6127047;23;20314;-83
2023/05/05 05:59:29;;;;;;;18.65;14.43;;;;;;;;;;6151363;23;20024;-83
2023/05/05 06:01:55;;;;;;;18.02;12.70;;;;;;;;;;6126317;23;20024;-82
2023/05/05 06:04:21;;;;;;;20.15;12.60;;;;;;;;;;6126568;23;20104;-82
2023/05/05 06:06:47;;;;;;;17.67;11.82;;;;;;;;;;6126549;23;20013;-83
2023/05/05 06:09:13;;;;;;;14.63;11.73;;;;;;;;;;6126395;23;20021;-82
2023/05/05 06:11:39;;;;;;;13.85;10.77;;;;;;;;;;6126342;23;20025;-83
2023/05/05 06:14:05;;;;;;;19.05;12.95;;;;;;;;;;6151120;23;20013;-83
2023/05/05 06:16:31;;;;;;;14.35;11.38;;;;;;;;;;6152127;23;20167;-83
2023/05/05 06:18:57;;;;;;;15.60;12.57;;;;;;;;;;6152543;23;20016;-83
2023/05/05 06:21:23;;;;;;;17.85;12.80;;;;;;;;;;6152317;23;20456;-83
2023/05/05 06:23:49;;;;;;;16.38;12.48;;;;;;;;;;6152389;23;20040;-83
2023/05/05 06:26:16;;;;;;;14.00;10.80;;;;;;;;;;6152812;23;20009;-83
2023/05/05 06:28:42;;;;;;;15.20;12.95;;;;;;;;;;6152470;23;20083;-84
2023/05/05 06:31:08;;;;;;;14.88;10.70;;;;;;;;;;6127316;23;20041;-83
2023/05/05 06:33:34;;;;;;;307.00;39.15;;;;;;;;;;6154447;23;20044;-82
2023/05/05 06:36:00;;;;;;;14.10;10.50;;;;;;;;;;6152456;23;20020;-83
2023/05/05 06:38:26;;;;;;;13.10;9.32;;;;;;;;;;6127767;23;20056;-85
2023/05/05 06:40:52;;;;;;;16.23;9.30;;;;;;;;;;6127551;23;20013;-84
2023/05/05 06:43:18;;;;;;;12.88;8.02;;;;;;;;;;6149761;23;20396;-84
2023/05/05 06:45:44;;;;;;;9.52;7.30;;;;;;;;;;6149151;23;20013;-85
2023/05/05 06:48:10;;;;;;;12.75;7.32;;;;;;;;;;6151304;23;20014;-84
2023/05/05 06:50:36;;;;;;;11.50;7.45;;;;;;;;;;6149806;23;20088;-84
2023/05/05 06:53:02;;;;;;;13.88;7.50;;;;;;;;;;6125107;23;20013;-84
2023/05/05 06:55:29;;;;;;;11.98;7.88;;;;;;;;;;6151576;23;20009;-84
2023/05/05 06:57:57;;;;;;;12.10;8.25;;;;;;;;;;6127785;23;20092;-84
2023/05/05 07:00:24;;;;;;;16.35;9.13;;;;;;;;;;6151757;23;20014;-84
2023/05/05 07:02:49;;;;;;;13.93;10.15;;;;;;;;;;6151858;23;20064;-84
2023/05/05 07:05:16;;;;;;;15.23;10.60;;;;;;;;;;6127531;23;20014;-84
2023/05/05 07:07:54;;;;;;;15.20;10.75;;;;;;;;;;6152123;23;20399;-84
2023/05/05 07:10:21;;;;;;;17.08;11.27;;;;;;;;;;6151927;23;20021;-84
2023/05/05 07:12:48;;;;;;;13.10;10.55;;;;;;;;;;6130281;23;20017;-84
2023/05/05 07:15:14;;;;;;;13.77;9.48;;;;;;;;;;6156396;23;20021;-84
2023/05/05 07:17:40;;;;;;;15.52;9.35;;;;;;;;;;6132321;23;20071;-84
2023/05/05 07:20:09;;;;;;;17.50;9.68;;;;;;;;;;6183222;23;20017;-84
2023/05/05 07:22:35;;;;;;;13.48;9.52;;;;;;;;;;6156498;23;20017;-84
2023/05/05 07:25:02;;;;;;;13.70;8.20;;;;;;;;;;6132066;23;20020;-84
2023/05/05 07:27:29;;;;;;;10.43;8.38;;;;;;;;;;6183301;23;20076;-84
2023/05/05 07:29:55;;;;;;;14.82;8.38;;;;;;;;;;6156099;23;20021;-84
2023/05/05 07:32:21;;;;;;;12.85;8.32;;;;;;;;;;6157078;23;20024;-84
2023/05/05 07:34:47;;;;;;;10.80;8.98;;;;;;;;;;6183437;23;20017;-85
2023/05/05 07:37:13;;;;;;;13.40;8.32;;;;;;;;;;6157013;23;20036;-84
2023/05/05 07:39:40;;;;;;;14.07;8.80;;;;;;;;;;6183298;23;20085;-84
2023/05/05 07:42:06;;;;;;;12.63;8.63;;;;;;;;;;6155954;23;20067;-84
2023/05/05 07:44:32;;;;;;;12.43;8.13;;;;;;;;;;6131968;23;20095;-84
2023/05/05 07:46:58;;;;;;;17.33;8.82;;;;;;;;;;6183443;23;20059;-84
2023/05/05 07:49:25;;;;;;;11.43;7.97;;;;;;;;;;6183084;23;20360;-84
2023/05/05 07:51:51;;;;;;;11.00;7.72;;;;;;;;;;6132082;23;20055;-84
2023/05/05 07:54:18;;;;;;;13.80;8.57;;;;;;;;;;6182974;23;20047;-84
2023/05/05 07:56:44;;;;;;;10.95;7.38;;;;;;;;;;6131312;23;20013;-84
2023/05/05 07:59:10;;;;;;;11.88;7.72;;;;;;;;;;6156880;23;20034;-84
2023/05/05 08:01:36;;;;;;;10.18;7.65;;;;;;;;;;6131753;23;20013;-84
2023/05/05 08:04:02;;;;;;;13.38;7.30;;;;;;;;;;6156664;23;20132;-84
2023/05/05 08:06:28;;;;;;;11.02;7.65;;;;;;;;;;6131895;23;20100;-84
2023/05/05 08:08:55;;;;;;;9.27;7.40;;;;;;;;;;6131831;23;20017;-83
2023/05/05 08:11:21;;;;;;;11.50;7.43;;;;;;;;;;6156250;23;20388;-82
2023/05/05 08:13:47;;;;;;;11.77;7.95;;;;;;;;;;6156258;23;20025;-82
2023/05/05 08:16:14;;;;;;;9.77;7.55;;;;;;;;;;6156923;23;20013;-82
2023/05/05 08:18:40;;;;;;;11.85;7.90;;;;;;;;;;6131598;23;20013;-82
2023/05/05 08:21:07;;;;;;;12.80;7.93;;;;;;;;;;6156665;23;20081;-82
2023/05/05 08:23:34;;;;;;;11.23;8.02;;;;;;;;;;6156309;23;20059;-82
2023/05/05 08:26:01;;;;;;;10.07;7.60;;;;;;;;;;6131086;23;20449;-82
2023/05/05 08:28:27;;;;;;;14.57;8.23;;;;;;;;;;6182669;23;20032;-82
2023/05/05 08:30:53;;;;;;;13.40;8.55;;;;;;;;;;6183026;23;20320;-83
2023/05/05 08:33:19;;;;;;;12.80;7.40;;;;;;;;;;6156196;23;20040;-82
2023/05/05 08:35:45;;;;;;;15.43;8.10;;;;;;;;;;6155856;23;20028;-83
2023/05/05 08:38:11;;;;;;;12.27;7.90;;;;;;;;;;6131669;23;20024;-83
2023/05/05 08:40:41;;;;;;;13.52;8.60;;;;;;;;;;6155552;23;20317;-82
2023/05/05 08:43:07;;;;;;;13.10;7.95;;;;;;;;;;6182700;23;20013;-81
2023/05/05 08:45:36;;;;;;;10.68;8.30;;;;;;;;;;6182883;23;20013;-82
2023/05/05 08:48:04;;;;;;;10.25;8.15;;;;;;;;;;6131514;23;20380;-81
2023/05/05 08:50:30;;;;;;;10.77;8.23;;;;;;;;;;6131433;23;20009;-81
2023/05/05 08:53:02;;;;;;;13.90;7.90;;;;;;;;;;6131238;23;20020;-80
2023/05/05 08:55:32;;;;;;;12.15;8.75;;;;;;;;;;6155397;23;20013;-80
2023/05/05 08:58:07;;;;;;;10.90;8.48;;;;;;;;;;6156332;23;20063;-80
2023/05/05 09:00:34;;;;;;;13.40;8.98;;;;;;;;;;6131298;23;20013;-80
2023/05/05 09:03:00;;;;;;;10.20;8.68;;;;;;;;;;6182804;23;20075;-80
2023/05/05 09:05:26;;;;;;;11.77;9.38;;;;;;;;;;6131341;23;20079;-81
2023/05/05 09:07:52;;;;;;;13.35;8.85;;;;;;;;;;6155833;23;20444;-80
2023/05/05 09:10:18;;;;;;;12.77;10.05;;;;;;;;;;6155682;23;20017;-80
2023/05/05 09:12:44;;;;;;;12.75;9.98;;;;;;;;;;6155656;23;20023;-80
2023/05/05 09:15:14;;;;;;;15.93;9.90;;;;;;;;;;6181962;23;20448;-81
2023/05/05 09:17:41;;;;;;;14.57;9.90;;;;;;;;;;6156262;23;20017;-82
2023/05/05 09:20:11;;;;;;;15.23;10.45;;;;;;;;;;6156015;23;20340;-85
2023/05/05 09:22:38;;;;;;;10.55;8.70;;;;;;;;;;6131271;23;20064;-81
2023/05/05 09:25:05;;;;;;;15.02;9.27;;;;;;;;;;6181849;23;20048;-83
2023/05/05 09:27:34;;;;;;;14.98;10.50;;;;;;;;;;6156340;23;20009;-83
2023/05/05 09:30:00;;;;;;;11.25;9.80;;;;;;;;;;6131230;23;20338;-82
2023/05/05 09:32:26;;;;;;;10.90;9.65;;;;;;;;;;6156059;23;20017;-83
2023/05/05 09:34:56;;;;;;;15.35;10.75;;;;;;;;;;6155793;23;20027;-82
2023/05/05 09:37:29;;;;;;;11.80;10.55;;;;;;;;;;6131135;23;20440;-82
2023/05/05 09:39:56;;;;;;;12.43;10.15;;;;;;;;;;6155421;23;20013;-83
2023/05/05 09:42:22;;;;;;;14.13;11.25;;;;;;;;;;6155816;23;20017;-83
2023/05/05 09:44:48;;;;;;;14.32;11.65;;;;;;;;;;6182675;23;20013;-83
2023/05/05 09:47:14;;;;;;;13.43;10.93;;;;;;;;;;6155848;23;20024;-83
2023/05/05 09:49:40;;;;;;;26.27;11.40;;;;;;;;;;6132426;23;20009;-83
2023/05/05 09:52:14;;;;;;;55.50;13.05;;;;;;;;;;6157640;23;20088;-82
2023/05/05 09:54:40;;;;;;;13.05;11.25;;;;;;;;;;6157214;23;20162;-83
2023/05/05 09:57:06;;;;;;;21.05;12.20;;;;;;;;;;6133035;23;20091;-82
2023/05/05 09:59:33;;;;;;;15.00;11.07;;;;;;;;;;6157686;23;20071;-83
2023/05/05 10:02:11;;;;;;;20.48;11.68;;;;;;;;;;6133265;23;20063;-83
2023/05/05 10:04:38;;;;;;;19.10;10.45;;;;;;;;;;6158328;23;20009;-83
2023/05/05 10:07:04;;;;;;;15.65;10.05;;;;;;;;;;6157499;23;20375;-83
2023/05/05 10:09:31;;;;;;;14.85;9.93;;;;;;;;;;6158508;23;20009;-82
2023/05/05 10:11:58;;;;;;;14.23;10.73;;;;;;;;;;6158240;23;20116;-83
2023/05/05 10:14:26;;;;;;;12.48;11.13;;;;;;;;;;6157404;23;20052;-83
2023/05/05 10:16:53;;;;;;;16.55;11.70;;;;;;;;;;6157824;23;20116;-82
2023/05/05 10:19:20;;;;;;;12.50;11.18;;;;;;;;;;6183976;23;20073;-83
2023/05/05 10:21:47;;;;;;;16.15;11.82;;;;;;;;;;6156724;23;20083;-83
2023/05/05 10:24:16;;;;;;;13.32;11.65;;;;;;;;;;6184343;23;20009;-82
2023/05/05 10:26:43;;;;;;;13.90;11.95;;;;;;;;;;6183758;23;20071;-83
2023/05/05 10:29:20;;;;;;;15.35;10.95;;;;;;;;;;6157502;23;20013;-83
2023/05/05 10:31:47;;;;;;;21.45;11.65;;;;;;;;;;6157980;23;20097;-82
2023/05/05 10:34:26;;;;;;;13.27;11.15;;;;;;;;;;6133267;23;20013;-85
2023/05/05 10:36:55;;;;;;;19.00;14.52;;;;;;;;;;6132738;23;20017;-85
2023/05/05 10:39:22;;;;;;;17.35;14.75;;;;;;;;;;6157600;23;20566;-85
2023/05/05 10:41:49;;;;;;;18.73;15.05;;;;;;;;;;6157722;23;20066;-85
2023/05/05 10:44:16;;;;;;;24.27;14.32;;;;;;;;;;6157694;23;20027;-85
2023/05/05 10:46:43;;;;;;;16.33;14.23;;;;;;;;;;6157875;23;20021;-85
2023/05/05 10:49:21;;;;;;;15.18;12.80;;;;;;;;;;6157620;23;20403;-82
2023/05/05 10:51:56;;;;;;;18.65;12.95;;;;;;;;;;6183791;23;20017;-86
2023/05/05 10:54:34;;;;;;;15.15;12.65;;;;;;;;;;6132874;23;20012;-85
2023/05/05 10:57:03;;;;;;;20.65;12.70;;;;;;;;;;6157641;23;20017;-82
2023/05/05 10:59:36;;;;;;;17.38;12.32;;;;;;;;;;6157325;23;20028;-82
2023/05/05 11:02:18;;;;;;;16.47;12.53;;;;;;;;;;6183373;23;20020;-82
2023/05/05 11:05:02;;;;;;;14.73;12.07;;;;;;;;;;6157571;23;20247;-82
2023/05/05 11:07:28;;;;;;;16.75;13.35;;;;;;;;;;6132412;23;20013;-82
2023/05/05 11:09:55;;;;;;;16.38;13.65;;;;;;;;;;6183977;23;20344;-81
2023/05/05 11:12:21;;;;;;;15.20;12.55;;;;;;;;;;6157847;23;20044;-82
2023/05/05 11:14:47;;;;;;;14.73;12.70;;;;;;;;;;6157205;23;20150;-82
2023/05/05 11:17:33;;;;;;;20.00;15.00;;;;;;;;;;6157399;23;20025;-82
2023/05/05 11:19:59;;;;;;;18.75;12.77;;;;;;;;;;6141422;23;20052;-84
2023/05/05 11:22:25;;;;;;;18.10;13.27;;;;;;;;;;6157298;23;20440;-84
2023/05/05 11:24:52;;;;;;;19.15;13.45;;;;;;;;;;6157256;23;20013;-85
2023/05/05 11:27:18;;;;;;;14.52;12.85;;;;;;;;;;6157624;23;20009;-84
2023/05/05 11:30:07;;;;;;;16.85;12.68;;;;;;;;;;6157732;23;20017;-84
2023/05/05 11:32:33;;;;;;;13.60;10.65;;;;;;;;;;6121375;23;20096;-84
2023/05/05 11:35:00;;;;;;;17.00;11.88;;;;;;;;;;6132060;23;20092;-84
2023/05/05 11:37:27;;;;;;;16.88;13.25;;;;;;;;;;6132509;23;20013;-84
2023/05/05 11:40:02;;;;;;;18.92;13.70;;;;;;;;;;6132477;23;20400;-84
2023/05/05 11:42:29;;;;;;;18.15;14.00;;;;;;;;;;6157002;23;20071;-84
2023/05/05 11:44:55;;;;;;;17.58;13.77;;;;;;;;;;6132380;23;20096;-84
2023/05/05 11:47:21;;;;;;;19.52;13.90;;;;;;;;;;6184006;23;20013;-84
2023/05/05 11:49:48;;;;;;;18.83;13.27;;;;;;;;;;6131785;23;20099;-82
2023/05/05 11:52:15;;;;;;;18.27;14.07;;;;;;;;;;6156793;23;20092;-82
2023/05/05 11:54:49;;;;;;;22.85;14.07;;;;;;;;;;6157074;23;20024;-82
2023/05/05 11:57:20;;;;;;;19.65;14.18;;;;;;;;;;6157073;23;20021;-85
2023/05/05 11:59:50;;;;;;;20.60;13.77;;;;;;;;;;6183768;23;20017;-82
2023/05/05 12:02:16;;;;;;;17.08;12.82;;;;;;;;;;6156935;23;20084;-82
2023/05/05 12:04:42;;;;;;;14.05;11.57;;;;;;;;;;6132109;23;20100;-84
2023/05/05 12:07:13;;;;;;;14.85;11.88;;;;;;;;;;6183608;23;20063;-84
2023/05/05 12:09:43;;;;;;;11.30;9.75;;;;;;;;;;6183569;23;20036;-84
2023/05/05 12:12:09;;;;;;;9.82;8.18;;;;;;;;;;6156580;23;20013;-85
2023/05/05 12:14:35;;;;;;;11.82;8.25;;;;;;;;;;6156637;23;20096;-84
2023/05/05 12:17:10;;;;;;;11.93;8.32;;;;;;;;;;6183663;23;20024;-84
2023/05/05 12:19:36;;;;;;;12.27;8.90;;;;;;;;;;6183078;23;20017;-82
2023/05/05 12:22:02;;;;;;;12.55;10.88;;;;;;;;;;6156557;23;20013;-82
2023/05/05 12:24:29;;;;;;;14.40;10.45;;;;;;;;;;6183222;23;20077;-82
2023/05/05 12:26:55;;;;;;;12.32;10.77;;;;;;;;;;6156848;23;20023;-81
2023/05/05 12:29:25;;;;;;;14.05;11.40;;;;;;;;;;6131960;23;20009;-87
2023/05/05 12:31:51;;;;;;;16.30;10.95;;;;;;;;;;6160719;23;20063;-82
2023/05/05 12:34:18;;;;;;;16.73;10.10;;;;;;;;;;6131765;23;20072;-82
2023/05/05 12:36:44;;;;;;;12.20;9.00;;;;;;;;;;6131953;23;20091;-83
2023/05/05 12:39:11;;;;;;;9.50;6.35;;;;;;;;;;6157378;23;20024;-83
2023/05/05 12:41:37;;;;;;;9.45;6.43;;;;;;;;;;6156775;23;20048;-81
2023/05/05 12:44:03;;;;;;;10.25;7.70;;;;;;;;;;6156847;23;20013;-84
2023/05/05 12:46:30;;;;;;;12.20;8.18;;;;;;;;;;6156736;23;20031;-85
2023/05/05 12:49:04;;;;;;;11.40;7.20;;;;;;;;;;6182570;23;20390;-84
2023/05/05 12:51:31;;;;;;;10.25;6.95;;;;;;;;;;6156645;23;20013;-85
2023/05/05 12:54:10;;;;;;;13.35;6.93;;;;;;;;;;6156423;23;20047;-83
2023/05/05 12:56:40;;;;;;;9.35;6.53;;;;;;;;;;6157080;23;20332;-85
2023/05/05 12:59:10;;;;;;;10.85;6.30;;;;;;;;;;6156792;23;20013;-83
2023/05/05 13:01:47;;;;;;;9.45;6.50;;;;;;;;;;6131126;23;20013;-84
2023/05/05 13:04:13;;;;;;;9.65;6.47;;;;;;;;;;6153100;23;20055;-83
2023/05/05 13:06:43;;;;;;;10.68;6.28;;;;;;;;;;6154494;23;20058;-84
2023/05/05 13:09:30;;;;;;;8.75;5.63;;;;;;;;;;6182171;23;20106;-84
2023/05/05 13:11:56;;;;;;;9.40;6.28;;;;;;;;;;6155811;23;20055;-84
2023/05/05 13:14:22;;;;;;;13.25;6.20;;;;;;;;;;6181992;23;20072;-83
2023/05/05 13:16:49;;;;;;;12.50;6.28;;;;;;;;;;6155588;23;20017;-81
2023/05/05 13:19:15;;;;;;;12.88;6.90;;;;;;;;;;6155579;23;20455;-81
2023/05/05 13:21:41;;;;;;;11.70;7.13;;;;;;;;;;6131033;23;20020;-83
2023/05/05 13:24:07;;;;;;;11.70;6.50;;;;;;;;;;6182697;23;20017;-81
2023/05/05 13:26:33;;;;;;;13.20;6.32;;;;;;;;;;6157733;23;20044;-80
2023/05/05 13:28:59;;;;;;;11.15;4.97;;;;;;;;;;6184514;23;20021;-81
2023/05/05 13:31:28;;;;;;;10.00;4.35;;;;;;;;;;6156831;23;20064;-80
2023/05/05 13:33:54;;;;;;;14.98;4.55;;;;;;;;;;6157198;23;20071;-80
2023/05/05 13:36:20;;;;;;;19.42;6.55;;;;;;;;;;6181900;23;20052;-85
2023/05/05 13:38:46;;;;;;;11.20;6.25;;;;;;;;;;6155914;23;20017;-83
2023/05/05 13:41:12;;;;;;;16.38;6.82;;;;;;;;;;6183524;23;20139;-81
2023/05/05 13:43:38;;;;;;;13.88;7.47;;;;;;;;;;6156890;23;20447;-81
2023/05/05 13:46:07;;;;;;;15.45;7.22;;;;;;;;;;6156089;23;20072;-81
2023/05/05 13:48:33;;;;;;;11.90;6.43;;;;;;;;;;6156939;23;20009;-81
2023/05/05 13:50:59;;;;;;;11.73;7.65;;;;;;;;;;6156842;23;20017;-81
2023/05/05 13:53:25;;;;;;;12.13;7.47;;;;;;;;;;6156777;23;20403;-82
2023/05/05 13:55:51;;;;;;;11.40;7.30;;;;;;;;;;6183347;23;20017;-81
2023/05/05 13:58:18;;;;;;;13.63;8.15;;;;;;;;;;6183645;23;20084;-84
2023/05/05 14:00:44;;;;;;;14.38;7.88;;;;;;;;;;6156627;23;20289;-80
2023/05/05 14:03:10;;;;;;;12.02;7.05;;;;;;;;;;6157143;23;20079;-81
2023/05/05 14:05:41;;;;;;;9.65;6.43;;;;;;;;;;6132389;23;20013;-80
2023/05/05 14:08:07;;;;;;;11.38;6.97;;;;;;;;;;6183145;23;20013;-80
2023/05/05 14:10:33;;;;;;;10.45;6.55;;;;;;;;;;6129652;23;20024;-83
2023/05/05 14:12:59;;;;;;;10.50;6.47;;;;;;;;;;6182271;23;20009;-82
2023/05/05 14:15:25;;;;;;;10.52;6.82;;;;;;;;;;6131229;23;20032;-83
2023/05/05 14:17:51;;;;;;;7.55;5.10;;;;;;;;;;6131813;23;20013;-83
2023/05/05 14:20:17;;;;;;;7.80;4.28;;;;;;;;;;6156218;23;20017;-82
2023/05/05 14:22:43;;;;;;;6.82;3.80;;;;;;;;;;6132357;23;20017;-86
2023/05/05 14:25:09;;;;;;;6.35;3.08;;;;;;;;;;6155625;23;20067;-85
2023/05/05 14:27:35;;;;;;;8.02;3.58;;;;;;;;;;6155554;23;20017;-85
2023/05/05 14:30:01;;;;;;;7.38;3.40;;;;;;;;;;6130837;23;20020;-85
2023/05/05 14:32:27;;;;;;;8.18;3.90;;;;;;;;;;6130643;23;20432;-85